<?xml version="1.0" encoding="UTF-8" standalone="no" ?>
<gpx xmlns="http://www.topografix.com/GPX/1/1" xmlns:xsi="http://www.w3.org/2001/XMLSchema-instance" xsi:schemaLocation="http://www.topografix.com/GPX/1/1 http://www.topografix.com/GPX/1/1/gpx.xsd" version="1.1" creator="VisuGPX - https://www.visugpx.com">
  <metadata>
    <name>Greyseilles</name>
    <desc><![CDATA[Départ Serres au sud de Creyseilles. Direction Vabre, les Colombières, Pied de Boeuf, Croix de St André.]]></desc>
  </metadata>
  <trk>
    <name><![CDATA[creyseilles]]></name>
    <desc><![CDATA[<h1>OruxMaps</h1><br /><hr align="center" width="480" style="height: 2px; width: 517px"/><h2>Nom: creyseilles</h2><br /><p>Temps de départ: 11/01/2013 10:46</p><p>Temps d'arrivée: 11/01/2013 15:47</p><p>Distance: 10,9 km (05:01)</p><p>Temps déplacement: 02:38</p><p>Vitesse moyenne: 2,2 km/h</p><p>Vitesse moyenne: 4,1 km/h</p><p>Vitess Max.: 5 km/h</p><p>Altitude minimale: 495 m</p><p>Altitude maximale: 923 m</p><p>Vitesse d'élévation: 246,8 m/h</p><p>Vitesse de descente: -174,7 m/h</p><p>Gain Altitude: 454 m</p><p>Perte Altitude: -451 m</p><p>Temps d'élévation: 01:50</p><p>Temps de descente: 02:35</p><hr align="center" width="480" style="height: 2px; width: 517px"/>]]></desc>
    <trkseg>
      <trkpt lat="44.75179" lon="4.54134">
        <ele>531</ele>
        <time>2013-11-01T09:46:40Z</time>
      </trkpt>
      <trkpt lat="44.75166" lon="4.54115">
        <ele>532</ele>
        <time>2013-11-01T09:53:03Z</time>
      </trkpt>
      <trkpt lat="44.75157" lon="4.54093">
        <ele>534</ele>
        <time>2013-11-01T09:53:24Z</time>
      </trkpt>
      <trkpt lat="44.7516" lon="4.54066">
        <ele>531</ele>
        <time>2013-11-01T09:53:55Z</time>
      </trkpt>
      <trkpt lat="44.75173" lon="4.54049">
        <ele>533</ele>
        <time>2013-11-01T09:54:18Z</time>
      </trkpt>
      <trkpt lat="44.75182" lon="4.54027">
        <ele>531</ele>
        <time>2013-11-01T09:55:00Z</time>
      </trkpt>
      <trkpt lat="44.75194" lon="4.54007">
        <ele>531</ele>
        <time>2013-11-01T09:55:28Z</time>
      </trkpt>
      <trkpt lat="44.75211" lon="4.53999">
        <ele>530</ele>
        <time>2013-11-01T09:56:51Z</time>
      </trkpt>
      <trkpt lat="44.75219" lon="4.53976">
        <ele>530</ele>
        <time>2013-11-01T09:57:11Z</time>
      </trkpt>
      <trkpt lat="44.7523" lon="4.53955">
        <ele>531</ele>
        <time>2013-11-01T09:57:25Z</time>
      </trkpt>
      <trkpt lat="44.75241" lon="4.53934">
        <ele>533</ele>
        <time>2013-11-01T09:57:51Z</time>
      </trkpt>
      <trkpt lat="44.75238" lon="4.53909">
        <ele>533</ele>
        <time>2013-11-01T09:58:33Z</time>
      </trkpt>
      <trkpt lat="44.75237" lon="4.53884">
        <ele>529</ele>
        <time>2013-11-01T09:59:01Z</time>
      </trkpt>
      <trkpt lat="44.75231" lon="4.53859">
        <ele>529</ele>
        <time>2013-11-01T09:59:36Z</time>
      </trkpt>
      <trkpt lat="44.75229" lon="4.53833">
        <ele>524</ele>
        <time>2013-11-01T09:59:56Z</time>
      </trkpt>
      <trkpt lat="44.75232" lon="4.53808">
        <ele>521</ele>
        <time>2013-11-01T10:00:19Z</time>
      </trkpt>
      <trkpt lat="44.7524" lon="4.53785">
        <ele>518</ele>
        <time>2013-11-01T10:00:41Z</time>
      </trkpt>
      <trkpt lat="44.75247" lon="4.53761">
        <ele>520</ele>
        <time>2013-11-01T10:01:03Z</time>
      </trkpt>
      <trkpt lat="44.75255" lon="4.53738">
        <ele>528</ele>
        <time>2013-11-01T10:01:26Z</time>
      </trkpt>
      <trkpt lat="44.75268" lon="4.53716">
        <ele>529</ele>
        <time>2013-11-01T10:02:01Z</time>
      </trkpt>
      <trkpt lat="44.75282" lon="4.53696">
        <ele>529</ele>
        <time>2013-11-01T10:02:18Z</time>
      </trkpt>
      <trkpt lat="44.75298" lon="4.53683">
        <ele>533</ele>
        <time>2013-11-01T10:02:31Z</time>
      </trkpt>
      <trkpt lat="44.75314" lon="4.53672">
        <ele>538</ele>
        <time>2013-11-01T10:02:54Z</time>
      </trkpt>
      <trkpt lat="44.7533" lon="4.53657">
        <ele>534</ele>
        <time>2013-11-01T10:03:29Z</time>
      </trkpt>
      <trkpt lat="44.75343" lon="4.53638">
        <ele>546</ele>
        <time>2013-11-01T10:03:54Z</time>
      </trkpt>
      <trkpt lat="44.75346" lon="4.53613">
        <ele>541</ele>
        <time>2013-11-01T10:04:19Z</time>
      </trkpt>
      <trkpt lat="44.75361" lon="4.53598">
        <ele>541</ele>
        <time>2013-11-01T10:04:35Z</time>
      </trkpt>
      <trkpt lat="44.7537" lon="4.53575">
        <ele>529</ele>
        <time>2013-11-01T10:04:53Z</time>
      </trkpt>
      <trkpt lat="44.75375" lon="4.5355">
        <ele>527</ele>
        <time>2013-11-01T10:05:13Z</time>
      </trkpt>
      <trkpt lat="44.75386" lon="4.5353">
        <ele>527</ele>
        <time>2013-11-01T10:05:34Z</time>
      </trkpt>
      <trkpt lat="44.75395" lon="4.53507">
        <ele>527</ele>
        <time>2013-11-01T10:06:05Z</time>
      </trkpt>
      <trkpt lat="44.75406" lon="4.53487">
        <ele>521</ele>
        <time>2013-11-01T10:06:29Z</time>
      </trkpt>
      <trkpt lat="44.75414" lon="4.53464">
        <ele>516</ele>
        <time>2013-11-01T10:06:48Z</time>
      </trkpt>
      <trkpt lat="44.7543" lon="4.53452">
        <ele>525</ele>
        <time>2013-11-01T10:07:12Z</time>
      </trkpt>
      <trkpt lat="44.75441" lon="4.53432">
        <ele>522</ele>
        <time>2013-11-01T10:07:33Z</time>
      </trkpt>
      <trkpt lat="44.75451" lon="4.53411">
        <ele>517</ele>
        <time>2013-11-01T10:08:09Z</time>
      </trkpt>
      <trkpt lat="44.7547" lon="4.53416">
        <ele>520</ele>
        <time>2013-11-01T10:08:26Z</time>
      </trkpt>
      <trkpt lat="44.75468" lon="4.53391">
        <ele>519</ele>
        <time>2013-11-01T10:09:25Z</time>
      </trkpt>
      <trkpt lat="44.75467" lon="4.53365">
        <ele>519</ele>
        <time>2013-11-01T10:11:28Z</time>
      </trkpt>
      <trkpt lat="44.75471" lon="4.5334">
        <ele>520</ele>
        <time>2013-11-01T10:14:07Z</time>
      </trkpt>
      <trkpt lat="44.75478" lon="4.53316">
        <ele>524</ele>
        <time>2013-11-01T10:15:00Z</time>
      </trkpt>
      <trkpt lat="44.75495" lon="4.53311">
        <ele>525</ele>
        <time>2013-11-01T10:15:55Z</time>
      </trkpt>
      <trkpt lat="44.75508" lon="4.53292">
        <ele>539</ele>
        <time>2013-11-01T10:16:37Z</time>
      </trkpt>
      <trkpt lat="44.75523" lon="4.53278">
        <ele>542</ele>
        <time>2013-11-01T10:17:43Z</time>
      </trkpt>
      <trkpt lat="44.75532" lon="4.53255">
        <ele>544</ele>
        <time>2013-11-01T10:18:43Z</time>
      </trkpt>
      <trkpt lat="44.7554" lon="4.53232">
        <ele>553</ele>
        <time>2013-11-01T10:19:09Z</time>
      </trkpt>
      <trkpt lat="44.75542" lon="4.53207">
        <ele>554</ele>
        <time>2013-11-01T10:19:37Z</time>
      </trkpt>
      <trkpt lat="44.75549" lon="4.53183">
        <ele>556</ele>
        <time>2013-11-01T10:20:34Z</time>
      </trkpt>
      <trkpt lat="44.75549" lon="4.53157">
        <ele>558</ele>
        <time>2013-11-01T10:20:55Z</time>
      </trkpt>
      <trkpt lat="44.75551" lon="4.53132">
        <ele>557</ele>
        <time>2013-11-01T10:21:15Z</time>
      </trkpt>
      <trkpt lat="44.75563" lon="4.53114">
        <ele>559</ele>
        <time>2013-11-01T10:21:38Z</time>
      </trkpt>
      <trkpt lat="44.75573" lon="4.53091">
        <ele>563</ele>
        <time>2013-11-01T10:22:03Z</time>
      </trkpt>
      <trkpt lat="44.75589" lon="4.53077">
        <ele>572</ele>
        <time>2013-11-01T10:22:18Z</time>
      </trkpt>
      <trkpt lat="44.75606" lon="4.53071">
        <ele>579</ele>
        <time>2013-11-01T10:22:37Z</time>
      </trkpt>
      <trkpt lat="44.75624" lon="4.53062">
        <ele>583</ele>
        <time>2013-11-01T10:23:04Z</time>
      </trkpt>
      <trkpt lat="44.75639" lon="4.53048">
        <ele>586</ele>
        <time>2013-11-01T10:27:35Z</time>
      </trkpt>
      <trkpt lat="44.75657" lon="4.53043">
        <ele>588</ele>
        <time>2013-11-01T10:28:05Z</time>
      </trkpt>
      <trkpt lat="44.75673" lon="4.53031">
        <ele>604</ele>
        <time>2013-11-01T10:28:37Z</time>
      </trkpt>
      <trkpt lat="44.75684" lon="4.5301">
        <ele>603</ele>
        <time>2013-11-01T10:29:04Z</time>
      </trkpt>
      <trkpt lat="44.75695" lon="4.52989">
        <ele>608</ele>
        <time>2013-11-01T10:29:34Z</time>
      </trkpt>
      <trkpt lat="44.75677" lon="4.52989">
        <ele>604</ele>
        <time>2013-11-01T10:31:07Z</time>
      </trkpt>
      <trkpt lat="44.75661" lon="4.52976">
        <ele>597</ele>
        <time>2013-11-01T10:31:33Z</time>
      </trkpt>
      <trkpt lat="44.75651" lon="4.52955">
        <ele>598</ele>
        <time>2013-11-01T10:31:56Z</time>
      </trkpt>
      <trkpt lat="44.75646" lon="4.52931">
        <ele>600</ele>
        <time>2013-11-01T10:33:38Z</time>
      </trkpt>
      <trkpt lat="44.75644" lon="4.52906">
        <ele>611</ele>
        <time>2013-11-01T10:33:57Z</time>
      </trkpt>
      <trkpt lat="44.75641" lon="4.5288">
        <ele>613</ele>
        <time>2013-11-01T10:35:11Z</time>
      </trkpt>
      <trkpt lat="44.75628" lon="4.52863">
        <ele>615</ele>
        <time>2013-11-01T10:35:38Z</time>
      </trkpt>
      <trkpt lat="44.75616" lon="4.52843">
        <ele>615</ele>
        <time>2013-11-01T10:36:08Z</time>
      </trkpt>
      <trkpt lat="44.75597" lon="4.52842">
        <ele>615</ele>
        <time>2013-11-01T10:36:40Z</time>
      </trkpt>
      <trkpt lat="44.75588" lon="4.5282">
        <ele>625</ele>
        <time>2013-11-01T10:37:16Z</time>
      </trkpt>
      <trkpt lat="44.75603" lon="4.52835">
        <ele>615</ele>
        <time>2013-11-01T10:38:57Z</time>
      </trkpt>
      <trkpt lat="44.75621" lon="4.52838">
        <ele>616</ele>
        <time>2013-11-01T10:39:19Z</time>
      </trkpt>
      <trkpt lat="44.75639" lon="4.52832">
        <ele>632</ele>
        <time>2013-11-01T10:40:01Z</time>
      </trkpt>
      <trkpt lat="44.75657" lon="4.5284">
        <ele>624</ele>
        <time>2013-11-01T10:40:35Z</time>
      </trkpt>
      <trkpt lat="44.75676" lon="4.52849">
        <ele>629</ele>
        <time>2013-11-01T10:41:12Z</time>
      </trkpt>
      <trkpt lat="44.75694" lon="4.52855">
        <ele>630</ele>
        <time>2013-11-01T10:41:25Z</time>
      </trkpt>
      <trkpt lat="44.7571" lon="4.52845">
        <ele>632</ele>
        <time>2013-11-01T10:42:01Z</time>
      </trkpt>
      <trkpt lat="44.75703" lon="4.52822">
        <ele>649</ele>
        <time>2013-11-01T10:45:55Z</time>
      </trkpt>
      <trkpt lat="44.75721" lon="4.52813">
        <ele>653</ele>
        <time>2013-11-01T10:46:35Z</time>
      </trkpt>
      <trkpt lat="44.75705" lon="4.52799">
        <ele>653</ele>
        <time>2013-11-01T10:47:03Z</time>
      </trkpt>
      <trkpt lat="44.75688" lon="4.52796">
        <ele>652</ele>
        <time>2013-11-01T10:47:26Z</time>
      </trkpt>
      <trkpt lat="44.75674" lon="4.52813">
        <ele>645</ele>
        <time>2013-11-01T10:47:53Z</time>
      </trkpt>
      <trkpt lat="44.75685" lon="4.52793">
        <ele>652</ele>
        <time>2013-11-01T10:54:48Z</time>
      </trkpt>
      <trkpt lat="44.75669" lon="4.52802">
        <ele>648</ele>
        <time>2013-11-01T10:55:22Z</time>
      </trkpt>
      <trkpt lat="44.75654" lon="4.52787">
        <ele>639</ele>
        <time>2013-11-01T10:55:39Z</time>
      </trkpt>
      <trkpt lat="44.75643" lon="4.52767">
        <ele>643</ele>
        <time>2013-11-01T10:55:52Z</time>
      </trkpt>
      <trkpt lat="44.7563" lon="4.52748">
        <ele>654</ele>
        <time>2013-11-01T10:56:18Z</time>
      </trkpt>
      <trkpt lat="44.75616" lon="4.52732">
        <ele>652</ele>
        <time>2013-11-01T10:56:32Z</time>
      </trkpt>
      <trkpt lat="44.75604" lon="4.52712">
        <ele>653</ele>
        <time>2013-11-01T10:56:50Z</time>
      </trkpt>
      <trkpt lat="44.75593" lon="4.52692">
        <ele>655</ele>
        <time>2013-11-01T10:57:10Z</time>
      </trkpt>
      <trkpt lat="44.75575" lon="4.52685">
        <ele>648</ele>
        <time>2013-11-01T10:57:26Z</time>
      </trkpt>
      <trkpt lat="44.75558" lon="4.52696">
        <ele>645</ele>
        <time>2013-11-01T10:57:45Z</time>
      </trkpt>
      <trkpt lat="44.7554" lon="4.52688">
        <ele>644</ele>
        <time>2013-11-01T10:58:15Z</time>
      </trkpt>
      <trkpt lat="44.75523" lon="4.52677">
        <ele>644</ele>
        <time>2013-11-01T10:58:37Z</time>
      </trkpt>
      <trkpt lat="44.75511" lon="4.52658">
        <ele>650</ele>
        <time>2013-11-01T10:58:54Z</time>
      </trkpt>
      <trkpt lat="44.75502" lon="4.52634">
        <ele>653</ele>
        <time>2013-11-01T10:59:17Z</time>
      </trkpt>
      <trkpt lat="44.75494" lon="4.52611">
        <ele>649</ele>
        <time>2013-11-01T10:59:38Z</time>
      </trkpt>
      <trkpt lat="44.75491" lon="4.52586">
        <ele>653</ele>
        <time>2013-11-01T10:59:57Z</time>
      </trkpt>
      <trkpt lat="44.75479" lon="4.52567">
        <ele>658</ele>
        <time>2013-11-01T11:00:49Z</time>
      </trkpt>
      <trkpt lat="44.75466" lon="4.52549">
        <ele>659</ele>
        <time>2013-11-01T11:01:52Z</time>
      </trkpt>
      <trkpt lat="44.75462" lon="4.52523">
        <ele>661</ele>
        <time>2013-11-01T11:02:24Z</time>
      </trkpt>
      <trkpt lat="44.75453" lon="4.525">
        <ele>661</ele>
        <time>2013-11-01T11:02:46Z</time>
      </trkpt>
      <trkpt lat="44.75444" lon="4.52478">
        <ele>670</ele>
        <time>2013-11-01T11:03:05Z</time>
      </trkpt>
      <trkpt lat="44.75429" lon="4.52463">
        <ele>670</ele>
        <time>2013-11-01T11:03:28Z</time>
      </trkpt>
      <trkpt lat="44.75419" lon="4.52442">
        <ele>670</ele>
        <time>2013-11-01T11:03:52Z</time>
      </trkpt>
      <trkpt lat="44.75402" lon="4.52432">
        <ele>662</ele>
        <time>2013-11-01T11:04:07Z</time>
      </trkpt>
      <trkpt lat="44.75397" lon="4.52406">
        <ele>668</ele>
        <time>2013-11-01T11:04:25Z</time>
      </trkpt>
      <trkpt lat="44.75385" lon="4.52387">
        <ele>668</ele>
        <time>2013-11-01T11:05:03Z</time>
      </trkpt>
      <trkpt lat="44.75371" lon="4.5237">
        <ele>668</ele>
        <time>2013-11-01T11:05:24Z</time>
      </trkpt>
      <trkpt lat="44.75361" lon="4.52349">
        <ele>668</ele>
        <time>2013-11-01T11:05:48Z</time>
      </trkpt>
      <trkpt lat="44.75354" lon="4.52325">
        <ele>673</ele>
        <time>2013-11-01T11:06:54Z</time>
      </trkpt>
      <trkpt lat="44.75343" lon="4.52303">
        <ele>675</ele>
        <time>2013-11-01T11:07:11Z</time>
      </trkpt>
      <trkpt lat="44.75336" lon="4.52278">
        <ele>675</ele>
        <time>2013-11-01T11:07:27Z</time>
      </trkpt>
      <trkpt lat="44.75335" lon="4.52252">
        <ele>670</ele>
        <time>2013-11-01T11:07:46Z</time>
      </trkpt>
      <trkpt lat="44.75331" lon="4.52227">
        <ele>657</ele>
        <time>2013-11-01T11:08:08Z</time>
      </trkpt>
      <trkpt lat="44.75329" lon="4.52201">
        <ele>654</ele>
        <time>2013-11-01T11:09:27Z</time>
      </trkpt>
      <trkpt lat="44.75333" lon="4.52176">
        <ele>660</ele>
        <time>2013-11-01T11:09:42Z</time>
      </trkpt>
      <trkpt lat="44.75339" lon="4.52151">
        <ele>674</ele>
        <time>2013-11-01T11:10:00Z</time>
      </trkpt>
      <trkpt lat="44.75345" lon="4.52127">
        <ele>678</ele>
        <time>2013-11-01T11:10:16Z</time>
      </trkpt>
      <trkpt lat="44.75355" lon="4.52105">
        <ele>677</ele>
        <time>2013-11-01T11:10:39Z</time>
      </trkpt>
      <trkpt lat="44.75361" lon="4.52081">
        <ele>676</ele>
        <time>2013-11-01T11:10:54Z</time>
      </trkpt>
      <trkpt lat="44.75367" lon="4.52057">
        <ele>679</ele>
        <time>2013-11-01T11:11:11Z</time>
      </trkpt>
      <trkpt lat="44.75368" lon="4.5203">
        <ele>679</ele>
        <time>2013-11-01T11:11:33Z</time>
      </trkpt>
      <trkpt lat="44.75374" lon="4.52006">
        <ele>680</ele>
        <time>2013-11-01T11:11:48Z</time>
      </trkpt>
      <trkpt lat="44.75379" lon="4.51981">
        <ele>688</ele>
        <time>2013-11-01T11:12:06Z</time>
      </trkpt>
      <trkpt lat="44.75381" lon="4.51956">
        <ele>691</ele>
        <time>2013-11-01T11:12:28Z</time>
      </trkpt>
      <trkpt lat="44.7537" lon="4.51935">
        <ele>691</ele>
        <time>2013-11-01T11:13:00Z</time>
      </trkpt>
      <trkpt lat="44.75352" lon="4.51931">
        <ele>689</ele>
        <time>2013-11-01T11:13:20Z</time>
      </trkpt>
      <trkpt lat="44.75333" lon="4.51933">
        <ele>682</ele>
        <time>2013-11-01T11:13:43Z</time>
      </trkpt>
      <trkpt lat="44.75316" lon="4.51929">
        <ele>681</ele>
        <time>2013-11-01T11:14:05Z</time>
      </trkpt>
      <trkpt lat="44.75299" lon="4.51917">
        <ele>680</ele>
        <time>2013-11-01T11:14:25Z</time>
      </trkpt>
      <trkpt lat="44.7528" lon="4.51916">
        <ele>700</ele>
        <time>2013-11-01T11:14:48Z</time>
      </trkpt>
      <trkpt lat="44.75263" lon="4.51926">
        <ele>683</ele>
        <time>2013-11-01T11:15:09Z</time>
      </trkpt>
      <trkpt lat="44.75247" lon="4.5194">
        <ele>684</ele>
        <time>2013-11-01T11:15:36Z</time>
      </trkpt>
      <trkpt lat="44.75229" lon="4.51945">
        <ele>682</ele>
        <time>2013-11-01T11:15:55Z</time>
      </trkpt>
      <trkpt lat="44.75211" lon="4.5195">
        <ele>682</ele>
        <time>2013-11-01T11:16:20Z</time>
      </trkpt>
      <trkpt lat="44.75193" lon="4.51947">
        <ele>684</ele>
        <time>2013-11-01T11:16:40Z</time>
      </trkpt>
      <trkpt lat="44.75174" lon="4.5195">
        <ele>685</ele>
        <time>2013-11-01T11:17:00Z</time>
      </trkpt>
      <trkpt lat="44.75155" lon="4.51949">
        <ele>692</ele>
        <time>2013-11-01T11:17:19Z</time>
      </trkpt>
      <trkpt lat="44.75137" lon="4.51951">
        <ele>692</ele>
        <time>2013-11-01T11:17:38Z</time>
      </trkpt>
      <trkpt lat="44.75119" lon="4.51959">
        <ele>692</ele>
        <time>2013-11-01T11:18:01Z</time>
      </trkpt>
      <trkpt lat="44.75102" lon="4.51968">
        <ele>692</ele>
        <time>2013-11-01T11:18:28Z</time>
      </trkpt>
      <trkpt lat="44.75087" lon="4.51984">
        <ele>690</ele>
        <time>2013-11-01T11:23:08Z</time>
      </trkpt>
      <trkpt lat="44.7507" lon="4.51977">
        <ele>689</ele>
        <time>2013-11-01T11:23:30Z</time>
      </trkpt>
      <trkpt lat="44.75056" lon="4.51959">
        <ele>691</ele>
        <time>2013-11-01T11:23:52Z</time>
      </trkpt>
      <trkpt lat="44.75042" lon="4.51941">
        <ele>692</ele>
        <time>2013-11-01T11:24:09Z</time>
      </trkpt>
      <trkpt lat="44.75029" lon="4.51924">
        <ele>693</ele>
        <time>2013-11-01T11:24:33Z</time>
      </trkpt>
      <trkpt lat="44.75014" lon="4.51909">
        <ele>704</ele>
        <time>2013-11-01T11:25:03Z</time>
      </trkpt>
      <trkpt lat="44.74995" lon="4.51902">
        <ele>700</ele>
        <time>2013-11-01T11:25:19Z</time>
      </trkpt>
      <trkpt lat="44.74978" lon="4.51897">
        <ele>700</ele>
        <time>2013-11-01T11:25:40Z</time>
      </trkpt>
      <trkpt lat="44.74962" lon="4.51885">
        <ele>701</ele>
        <time>2013-11-01T11:26:02Z</time>
      </trkpt>
      <trkpt lat="44.74949" lon="4.51865">
        <ele>703</ele>
        <time>2013-11-01T11:26:28Z</time>
      </trkpt>
      <trkpt lat="44.74934" lon="4.51848">
        <ele>705</ele>
        <time>2013-11-01T11:26:44Z</time>
      </trkpt>
      <trkpt lat="44.74922" lon="4.51826">
        <ele>712</ele>
        <time>2013-11-01T11:27:11Z</time>
      </trkpt>
      <trkpt lat="44.7491" lon="4.51806">
        <ele>711</ele>
        <time>2013-11-01T11:27:23Z</time>
      </trkpt>
      <trkpt lat="44.74893" lon="4.51797">
        <ele>711</ele>
        <time>2013-11-01T11:27:46Z</time>
      </trkpt>
      <trkpt lat="44.74875" lon="4.51782">
        <ele>712</ele>
        <time>2013-11-01T11:28:05Z</time>
      </trkpt>
      <trkpt lat="44.74861" lon="4.51763">
        <ele>712</ele>
        <time>2013-11-01T11:28:12Z</time>
      </trkpt>
      <trkpt lat="44.74853" lon="4.5174">
        <ele>720</ele>
        <time>2013-11-01T11:28:38Z</time>
      </trkpt>
      <trkpt lat="44.74838" lon="4.51723">
        <ele>721</ele>
        <time>2013-11-01T11:29:06Z</time>
      </trkpt>
      <trkpt lat="44.74826" lon="4.51704">
        <ele>718</ele>
        <time>2013-11-01T11:29:24Z</time>
      </trkpt>
      <trkpt lat="44.74813" lon="4.51686">
        <ele>719</ele>
        <time>2013-11-01T11:29:48Z</time>
      </trkpt>
      <trkpt lat="44.74806" lon="4.51661">
        <ele>720</ele>
        <time>2013-11-01T11:30:17Z</time>
      </trkpt>
      <trkpt lat="44.7481" lon="4.51634">
        <ele>719</ele>
        <time>2013-11-01T11:30:36Z</time>
      </trkpt>
      <trkpt lat="44.74816" lon="4.51659">
        <ele>721</ele>
        <time>2013-11-01T11:33:08Z</time>
      </trkpt>
      <trkpt lat="44.74832" lon="4.5167">
        <ele>723</ele>
        <time>2013-11-01T11:33:28Z</time>
      </trkpt>
      <trkpt lat="44.74849" lon="4.51681">
        <ele>725</ele>
        <time>2013-11-01T11:33:47Z</time>
      </trkpt>
      <trkpt lat="44.74867" lon="4.5169">
        <ele>725</ele>
        <time>2013-11-01T11:34:10Z</time>
      </trkpt>
      <trkpt lat="44.74884" lon="4.51704">
        <ele>726</ele>
        <time>2013-11-01T11:34:29Z</time>
      </trkpt>
      <trkpt lat="44.74897" lon="4.51722">
        <ele>726</ele>
        <time>2013-11-01T11:34:42Z</time>
      </trkpt>
      <trkpt lat="44.74907" lon="4.517">
        <ele>728</ele>
        <time>2013-11-01T11:35:06Z</time>
      </trkpt>
      <trkpt lat="44.74896" lon="4.51679">
        <ele>729</ele>
        <time>2013-11-01T11:35:28Z</time>
      </trkpt>
      <trkpt lat="44.74915" lon="4.51681">
        <ele>731</ele>
        <time>2013-11-01T11:36:10Z</time>
      </trkpt>
      <trkpt lat="44.74926" lon="4.51701">
        <ele>735</ele>
        <time>2013-11-01T11:36:25Z</time>
      </trkpt>
      <trkpt lat="44.74944" lon="4.51706">
        <ele>735</ele>
        <time>2013-11-01T11:36:47Z</time>
      </trkpt>
      <trkpt lat="44.74961" lon="4.51697">
        <ele>736</ele>
        <time>2013-11-01T11:37:02Z</time>
      </trkpt>
      <trkpt lat="44.74979" lon="4.51696">
        <ele>737</ele>
        <time>2013-11-01T11:37:17Z</time>
      </trkpt>
      <trkpt lat="44.7497" lon="4.51673">
        <ele>738</ele>
        <time>2013-11-01T11:38:42Z</time>
      </trkpt>
      <trkpt lat="44.74973" lon="4.51648">
        <ele>737</ele>
        <time>2013-11-01T11:39:00Z</time>
      </trkpt>
      <trkpt lat="44.74989" lon="4.51634">
        <ele>737</ele>
        <time>2013-11-01T11:39:20Z</time>
      </trkpt>
      <trkpt lat="44.75007" lon="4.51631">
        <ele>742</ele>
        <time>2013-11-01T11:39:41Z</time>
      </trkpt>
      <trkpt lat="44.75025" lon="4.51629">
        <ele>743</ele>
        <time>2013-11-01T11:39:58Z</time>
      </trkpt>
      <trkpt lat="44.75041" lon="4.51615">
        <ele>744</ele>
        <time>2013-11-01T11:40:17Z</time>
      </trkpt>
      <trkpt lat="44.75056" lon="4.51599">
        <ele>745</ele>
        <time>2013-11-01T11:40:37Z</time>
      </trkpt>
      <trkpt lat="44.75073" lon="4.51592">
        <ele>747</ele>
        <time>2013-11-01T11:40:56Z</time>
      </trkpt>
      <trkpt lat="44.75092" lon="4.5159">
        <ele>751</ele>
        <time>2013-11-01T11:41:13Z</time>
      </trkpt>
      <trkpt lat="44.75111" lon="4.51594">
        <ele>752</ele>
        <time>2013-11-01T11:41:32Z</time>
      </trkpt>
      <trkpt lat="44.75129" lon="4.51597">
        <ele>754</ele>
        <time>2013-11-01T11:41:51Z</time>
      </trkpt>
      <trkpt lat="44.75147" lon="4.51592">
        <ele>755</ele>
        <time>2013-11-01T11:42:13Z</time>
      </trkpt>
      <trkpt lat="44.75164" lon="4.51583">
        <ele>757</ele>
        <time>2013-11-01T11:42:32Z</time>
      </trkpt>
      <trkpt lat="44.75181" lon="4.51573">
        <ele>758</ele>
        <time>2013-11-01T11:42:49Z</time>
      </trkpt>
      <trkpt lat="44.75197" lon="4.51558">
        <ele>758</ele>
        <time>2013-11-01T11:43:08Z</time>
      </trkpt>
      <trkpt lat="44.75215" lon="4.51549">
        <ele>759</ele>
        <time>2013-11-01T11:43:26Z</time>
      </trkpt>
      <trkpt lat="44.75232" lon="4.51538">
        <ele>760</ele>
        <time>2013-11-01T11:43:50Z</time>
      </trkpt>
      <trkpt lat="44.7525" lon="4.51529">
        <ele>760</ele>
        <time>2013-11-01T11:44:09Z</time>
      </trkpt>
      <trkpt lat="44.75268" lon="4.51528">
        <ele>771</ele>
        <time>2013-11-01T11:44:29Z</time>
      </trkpt>
      <trkpt lat="44.75287" lon="4.51525">
        <ele>773</ele>
        <time>2013-11-01T11:44:47Z</time>
      </trkpt>
      <trkpt lat="44.75305" lon="4.5152">
        <ele>775</ele>
        <time>2013-11-01T11:45:00Z</time>
      </trkpt>
      <trkpt lat="44.75321" lon="4.51507">
        <ele>778</ele>
        <time>2013-11-01T11:45:23Z</time>
      </trkpt>
      <trkpt lat="44.75338" lon="4.51494">
        <ele>781</ele>
        <time>2013-11-01T11:45:44Z</time>
      </trkpt>
      <trkpt lat="44.75352" lon="4.51477">
        <ele>783</ele>
        <time>2013-11-01T11:46:07Z</time>
      </trkpt>
      <trkpt lat="44.75365" lon="4.51459">
        <ele>784</ele>
        <time>2013-11-01T11:46:25Z</time>
      </trkpt>
      <trkpt lat="44.75371" lon="4.51483">
        <ele>786</ele>
        <time>2013-11-01T11:47:13Z</time>
      </trkpt>
      <trkpt lat="44.75366" lon="4.51508">
        <ele>791</ele>
        <time>2013-11-01T11:47:37Z</time>
      </trkpt>
      <trkpt lat="44.75362" lon="4.51532">
        <ele>791</ele>
        <time>2013-11-01T11:47:53Z</time>
      </trkpt>
      <trkpt lat="44.75355" lon="4.51557">
        <ele>791</ele>
        <time>2013-11-01T11:48:11Z</time>
      </trkpt>
      <trkpt lat="44.75351" lon="4.51582">
        <ele>791</ele>
        <time>2013-11-01T11:48:39Z</time>
      </trkpt>
      <trkpt lat="44.75356" lon="4.51607">
        <ele>790</ele>
        <time>2013-11-01T11:49:03Z</time>
      </trkpt>
      <trkpt lat="44.75374" lon="4.51613">
        <ele>791</ele>
        <time>2013-11-01T11:49:21Z</time>
      </trkpt>
      <trkpt lat="44.7539" lon="4.51598">
        <ele>793</ele>
        <time>2013-11-01T11:49:42Z</time>
      </trkpt>
      <trkpt lat="44.75402" lon="4.51578">
        <ele>798</ele>
        <time>2013-11-01T11:50:01Z</time>
      </trkpt>
      <trkpt lat="44.75417" lon="4.51592">
        <ele>801</ele>
        <time>2013-11-01T11:50:20Z</time>
      </trkpt>
      <trkpt lat="44.75434" lon="4.51602">
        <ele>799</ele>
        <time>2013-11-01T11:50:40Z</time>
      </trkpt>
      <trkpt lat="44.75446" lon="4.51584">
        <ele>800</ele>
        <time>2013-11-01T11:51:00Z</time>
      </trkpt>
      <trkpt lat="44.75464" lon="4.51581">
        <ele>808</ele>
        <time>2013-11-01T11:51:20Z</time>
      </trkpt>
      <trkpt lat="44.75483" lon="4.51581">
        <ele>809</ele>
        <time>2013-11-01T11:51:39Z</time>
      </trkpt>
      <trkpt lat="44.75498" lon="4.51567">
        <ele>810</ele>
        <time>2013-11-01T11:51:56Z</time>
      </trkpt>
      <trkpt lat="44.75515" lon="4.51555">
        <ele>820</ele>
        <time>2013-11-01T11:52:17Z</time>
      </trkpt>
      <trkpt lat="44.75532" lon="4.51562">
        <ele>822</ele>
        <time>2013-11-01T11:52:37Z</time>
      </trkpt>
      <trkpt lat="44.75551" lon="4.51566">
        <ele>825</ele>
        <time>2013-11-01T11:52:58Z</time>
      </trkpt>
      <trkpt lat="44.75569" lon="4.51571">
        <ele>827</ele>
        <time>2013-11-01T11:53:14Z</time>
      </trkpt>
      <trkpt lat="44.75585" lon="4.51583">
        <ele>831</ele>
        <time>2013-11-01T11:53:33Z</time>
      </trkpt>
      <trkpt lat="44.756" lon="4.51598">
        <ele>834</ele>
        <time>2013-11-01T11:53:53Z</time>
      </trkpt>
      <trkpt lat="44.75599" lon="4.51573">
        <ele>841</ele>
        <time>2013-11-01T11:54:26Z</time>
      </trkpt>
      <trkpt lat="44.75583" lon="4.51557">
        <ele>828</ele>
        <time>2013-11-01T11:54:42Z</time>
      </trkpt>
      <trkpt lat="44.75576" lon="4.51533">
        <ele>830</ele>
        <time>2013-11-01T11:55:02Z</time>
      </trkpt>
      <trkpt lat="44.75574" lon="4.51508">
        <ele>835</ele>
        <time>2013-11-01T11:55:22Z</time>
      </trkpt>
      <trkpt lat="44.75571" lon="4.51481">
        <ele>836</ele>
        <time>2013-11-01T11:55:44Z</time>
      </trkpt>
      <trkpt lat="44.75567" lon="4.51455">
        <ele>835</ele>
        <time>2013-11-01T11:56:05Z</time>
      </trkpt>
      <trkpt lat="44.75573" lon="4.51431">
        <ele>839</ele>
        <time>2013-11-01T11:56:23Z</time>
      </trkpt>
      <trkpt lat="44.75576" lon="4.51406">
        <ele>840</ele>
        <time>2013-11-01T11:57:28Z</time>
      </trkpt>
      <trkpt lat="44.75586" lon="4.51384">
        <ele>855</ele>
        <time>2013-11-01T11:57:49Z</time>
      </trkpt>
      <trkpt lat="44.75595" lon="4.51361">
        <ele>854</ele>
        <time>2013-11-01T11:58:09Z</time>
      </trkpt>
      <trkpt lat="44.75604" lon="4.51338">
        <ele>853</ele>
        <time>2013-11-01T11:58:35Z</time>
      </trkpt>
      <trkpt lat="44.75615" lon="4.51315">
        <ele>853</ele>
        <time>2013-11-01T11:58:54Z</time>
      </trkpt>
      <trkpt lat="44.75628" lon="4.51297">
        <ele>855</ele>
        <time>2013-11-01T11:59:16Z</time>
      </trkpt>
      <trkpt lat="44.75642" lon="4.51279">
        <ele>857</ele>
        <time>2013-11-01T12:01:22Z</time>
      </trkpt>
      <trkpt lat="44.75656" lon="4.51263">
        <ele>860</ele>
        <time>2013-11-01T12:01:47Z</time>
      </trkpt>
      <trkpt lat="44.75664" lon="4.51239">
        <ele>861</ele>
        <time>2013-11-01T12:02:04Z</time>
      </trkpt>
      <trkpt lat="44.75671" lon="4.51214">
        <ele>872</ele>
        <time>2013-11-01T12:02:20Z</time>
      </trkpt>
      <trkpt lat="44.75676" lon="4.5119">
        <ele>872</ele>
        <time>2013-11-01T12:02:38Z</time>
      </trkpt>
      <trkpt lat="44.75682" lon="4.51166">
        <ele>871</ele>
        <time>2013-11-01T12:02:55Z</time>
      </trkpt>
      <trkpt lat="44.7568" lon="4.51138">
        <ele>874</ele>
        <time>2013-11-01T12:03:15Z</time>
      </trkpt>
      <trkpt lat="44.75678" lon="4.51112">
        <ele>875</ele>
        <time>2013-11-01T12:03:34Z</time>
      </trkpt>
      <trkpt lat="44.75669" lon="4.51089">
        <ele>874</ele>
        <time>2013-11-01T12:03:51Z</time>
      </trkpt>
      <trkpt lat="44.75663" lon="4.51064">
        <ele>872</ele>
        <time>2013-11-01T12:04:09Z</time>
      </trkpt>
      <trkpt lat="44.7566" lon="4.51038">
        <ele>874</ele>
        <time>2013-11-01T12:04:36Z</time>
      </trkpt>
      <trkpt lat="44.75678" lon="4.51039">
        <ele>882</ele>
        <time>2013-11-01T12:05:24Z</time>
      </trkpt>
      <trkpt lat="44.75695" lon="4.51048">
        <ele>882</ele>
        <time>2013-11-01T12:05:42Z</time>
      </trkpt>
      <trkpt lat="44.75711" lon="4.5106">
        <ele>883</ele>
        <time>2013-11-01T12:06:01Z</time>
      </trkpt>
      <trkpt lat="44.75723" lon="4.51079">
        <ele>883</ele>
        <time>2013-11-01T12:06:19Z</time>
      </trkpt>
      <trkpt lat="44.75729" lon="4.51104">
        <ele>880</ele>
        <time>2013-11-01T12:06:36Z</time>
      </trkpt>
      <trkpt lat="44.75732" lon="4.51129">
        <ele>879</ele>
        <time>2013-11-01T12:06:51Z</time>
      </trkpt>
      <trkpt lat="44.75736" lon="4.51155">
        <ele>880</ele>
        <time>2013-11-01T12:07:08Z</time>
      </trkpt>
      <trkpt lat="44.75737" lon="4.51181">
        <ele>880</ele>
        <time>2013-11-01T12:07:23Z</time>
      </trkpt>
      <trkpt lat="44.75747" lon="4.51204">
        <ele>880</ele>
        <time>2013-11-01T12:07:40Z</time>
      </trkpt>
      <trkpt lat="44.75759" lon="4.51224">
        <ele>885</ele>
        <time>2013-11-01T12:07:59Z</time>
      </trkpt>
      <trkpt lat="44.75765" lon="4.51249">
        <ele>886</ele>
        <time>2013-11-01T12:08:18Z</time>
      </trkpt>
      <trkpt lat="44.75765" lon="4.51275">
        <ele>890</ele>
        <time>2013-11-01T12:08:36Z</time>
      </trkpt>
      <trkpt lat="44.75764" lon="4.513">
        <ele>892</ele>
        <time>2013-11-01T12:08:55Z</time>
      </trkpt>
      <trkpt lat="44.75756" lon="4.51323">
        <ele>893</ele>
        <time>2013-11-01T12:09:12Z</time>
      </trkpt>
      <trkpt lat="44.75749" lon="4.51348">
        <ele>892</ele>
        <time>2013-11-01T12:09:30Z</time>
      </trkpt>
      <trkpt lat="44.75744" lon="4.51373">
        <ele>890</ele>
        <time>2013-11-01T12:09:46Z</time>
      </trkpt>
      <trkpt lat="44.75738" lon="4.51398">
        <ele>892</ele>
        <time>2013-11-01T12:10:02Z</time>
      </trkpt>
      <trkpt lat="44.75747" lon="4.51421">
        <ele>898</ele>
        <time>2013-11-01T12:10:20Z</time>
      </trkpt>
      <trkpt lat="44.75759" lon="4.5144">
        <ele>902</ele>
        <time>2013-11-01T12:10:35Z</time>
      </trkpt>
      <trkpt lat="44.75775" lon="4.51454">
        <ele>903</ele>
        <time>2013-11-01T12:11:13Z</time>
      </trkpt>
      <trkpt lat="44.75787" lon="4.51472">
        <ele>903</ele>
        <time>2013-11-01T12:11:31Z</time>
      </trkpt>
      <trkpt lat="44.75797" lon="4.51494">
        <ele>904</ele>
        <time>2013-11-01T12:11:50Z</time>
      </trkpt>
      <trkpt lat="44.75802" lon="4.51519">
        <ele>907</ele>
        <time>2013-11-01T12:12:08Z</time>
      </trkpt>
      <trkpt lat="44.75801" lon="4.51544">
        <ele>907</ele>
        <time>2013-11-01T12:12:25Z</time>
      </trkpt>
      <trkpt lat="44.75803" lon="4.51571">
        <ele>908</ele>
        <time>2013-11-01T12:12:43Z</time>
      </trkpt>
      <trkpt lat="44.75811" lon="4.51595">
        <ele>908</ele>
        <time>2013-11-01T12:13:04Z</time>
      </trkpt>
      <trkpt lat="44.75825" lon="4.51612">
        <ele>908</ele>
        <time>2013-11-01T12:13:21Z</time>
      </trkpt>
      <trkpt lat="44.75835" lon="4.51633">
        <ele>911</ele>
        <time>2013-11-01T12:13:38Z</time>
      </trkpt>
      <trkpt lat="44.75841" lon="4.51657">
        <ele>911</ele>
        <time>2013-11-01T12:13:56Z</time>
      </trkpt>
      <trkpt lat="44.75852" lon="4.51678">
        <ele>910</ele>
        <time>2013-11-01T12:14:17Z</time>
      </trkpt>
      <trkpt lat="44.75862" lon="4.517">
        <ele>908</ele>
        <time>2013-11-01T12:18:57Z</time>
      </trkpt>
      <trkpt lat="44.75855" lon="4.51724">
        <ele>907</ele>
        <time>2013-11-01T12:19:22Z</time>
      </trkpt>
      <trkpt lat="44.75844" lon="4.51744">
        <ele>906</ele>
        <time>2013-11-01T12:19:37Z</time>
      </trkpt>
      <trkpt lat="44.75838" lon="4.51768">
        <ele>901</ele>
        <time>2013-11-01T12:19:58Z</time>
      </trkpt>
      <trkpt lat="44.75831" lon="4.51792">
        <ele>890</ele>
        <time>2013-11-01T12:20:25Z</time>
      </trkpt>
      <trkpt lat="44.75833" lon="4.51817">
        <ele>889</ele>
        <time>2013-11-01T12:20:58Z</time>
      </trkpt>
      <trkpt lat="44.75852" lon="4.5182">
        <ele>896</ele>
        <time>2013-11-01T12:21:17Z</time>
      </trkpt>
      <trkpt lat="44.75871" lon="4.51821">
        <ele>897</ele>
        <time>2013-11-01T12:21:36Z</time>
      </trkpt>
      <trkpt lat="44.7589" lon="4.51818">
        <ele>897</ele>
        <time>2013-11-01T12:21:53Z</time>
      </trkpt>
      <trkpt lat="44.75908" lon="4.51822">
        <ele>896</ele>
        <time>2013-11-01T12:22:10Z</time>
      </trkpt>
      <trkpt lat="44.75927" lon="4.51825">
        <ele>895</ele>
        <time>2013-11-01T12:22:27Z</time>
      </trkpt>
      <trkpt lat="44.75946" lon="4.51825">
        <ele>895</ele>
        <time>2013-11-01T12:22:43Z</time>
      </trkpt>
      <trkpt lat="44.75964" lon="4.51819">
        <ele>895</ele>
        <time>2013-11-01T12:23:02Z</time>
      </trkpt>
      <trkpt lat="44.7598" lon="4.51829">
        <ele>894</ele>
        <time>2013-11-01T12:23:19Z</time>
      </trkpt>
      <trkpt lat="44.75999" lon="4.51831">
        <ele>891</ele>
        <time>2013-11-01T12:23:39Z</time>
      </trkpt>
      <trkpt lat="44.76016" lon="4.51841">
        <ele>888</ele>
        <time>2013-11-01T12:23:57Z</time>
      </trkpt>
      <trkpt lat="44.76034" lon="4.5184">
        <ele>886</ele>
        <time>2013-11-01T12:24:14Z</time>
      </trkpt>
      <trkpt lat="44.76053" lon="4.51846">
        <ele>886</ele>
        <time>2013-11-01T12:24:32Z</time>
      </trkpt>
      <trkpt lat="44.76072" lon="4.51851">
        <ele>886</ele>
        <time>2013-11-01T12:24:52Z</time>
      </trkpt>
      <trkpt lat="44.76088" lon="4.51863">
        <ele>887</ele>
        <time>2013-11-01T12:25:14Z</time>
      </trkpt>
      <trkpt lat="44.76105" lon="4.51876">
        <ele>887</ele>
        <time>2013-11-01T12:25:31Z</time>
      </trkpt>
      <trkpt lat="44.76121" lon="4.5189">
        <ele>887</ele>
        <time>2013-11-01T12:25:49Z</time>
      </trkpt>
      <trkpt lat="44.76139" lon="4.51897">
        <ele>887</ele>
        <time>2013-11-01T12:26:07Z</time>
      </trkpt>
      <trkpt lat="44.76156" lon="4.51907">
        <ele>887</ele>
        <time>2013-11-01T12:26:26Z</time>
      </trkpt>
      <trkpt lat="44.76172" lon="4.5192">
        <ele>887</ele>
        <time>2013-11-01T12:26:42Z</time>
      </trkpt>
      <trkpt lat="44.76187" lon="4.51934">
        <ele>886</ele>
        <time>2013-11-01T12:26:59Z</time>
      </trkpt>
      <trkpt lat="44.76204" lon="4.51944">
        <ele>886</ele>
        <time>2013-11-01T12:27:17Z</time>
      </trkpt>
      <trkpt lat="44.76218" lon="4.5196">
        <ele>886</ele>
        <time>2013-11-01T12:27:36Z</time>
      </trkpt>
      <trkpt lat="44.76232" lon="4.51978">
        <ele>885</ele>
        <time>2013-11-01T12:27:54Z</time>
      </trkpt>
      <trkpt lat="44.76239" lon="4.52002">
        <ele>879</ele>
        <time>2013-11-01T12:28:21Z</time>
      </trkpt>
      <trkpt lat="44.76241" lon="4.52027">
        <ele>873</ele>
        <time>2013-11-01T12:28:54Z</time>
      </trkpt>
      <trkpt lat="44.76237" lon="4.52053">
        <ele>869</ele>
        <time>2013-11-01T12:29:34Z</time>
      </trkpt>
      <trkpt lat="44.76231" lon="4.52076">
        <ele>867</ele>
        <time>2013-11-01T12:30:04Z</time>
      </trkpt>
      <trkpt lat="44.76217" lon="4.52094">
        <ele>854</ele>
        <time>2013-11-01T12:30:35Z</time>
      </trkpt>
      <trkpt lat="44.76218" lon="4.52121">
        <ele>852</ele>
        <time>2013-11-01T12:30:54Z</time>
      </trkpt>
      <trkpt lat="44.76222" lon="4.52146">
        <ele>850</ele>
        <time>2013-11-01T12:31:09Z</time>
      </trkpt>
      <trkpt lat="44.76226" lon="4.52172">
        <ele>842</ele>
        <time>2013-11-01T12:31:27Z</time>
      </trkpt>
      <trkpt lat="44.76231" lon="4.52197">
        <ele>840</ele>
        <time>2013-11-01T12:31:43Z</time>
      </trkpt>
      <trkpt lat="44.76235" lon="4.52223">
        <ele>838</ele>
        <time>2013-11-01T12:32:06Z</time>
      </trkpt>
      <trkpt lat="44.76239" lon="4.52248">
        <ele>839</ele>
        <time>2013-11-01T12:32:24Z</time>
      </trkpt>
      <trkpt lat="44.76245" lon="4.52272">
        <ele>829</ele>
        <time>2013-11-01T12:32:41Z</time>
      </trkpt>
      <trkpt lat="44.76246" lon="4.52299">
        <ele>825</ele>
        <time>2013-11-01T12:33:00Z</time>
      </trkpt>
      <trkpt lat="44.76248" lon="4.52326">
        <ele>824</ele>
        <time>2013-11-01T12:33:19Z</time>
      </trkpt>
      <trkpt lat="44.76251" lon="4.52352">
        <ele>825</ele>
        <time>2013-11-01T12:33:37Z</time>
      </trkpt>
      <trkpt lat="44.76256" lon="4.52379">
        <ele>823</ele>
        <time>2013-11-01T12:33:55Z</time>
      </trkpt>
      <trkpt lat="44.76247" lon="4.52401">
        <ele>810</ele>
        <time>2013-11-01T12:34:13Z</time>
      </trkpt>
      <trkpt lat="44.7623" lon="4.52411">
        <ele>809</ele>
        <time>2013-11-01T12:34:36Z</time>
      </trkpt>
      <trkpt lat="44.76212" lon="4.52419">
        <ele>800</ele>
        <time>2013-11-01T12:34:52Z</time>
      </trkpt>
      <trkpt lat="44.76206" lon="4.52443">
        <ele>799</ele>
        <time>2013-11-01T12:35:06Z</time>
      </trkpt>
      <trkpt lat="44.76202" lon="4.52469">
        <ele>797</ele>
        <time>2013-11-01T12:35:24Z</time>
      </trkpt>
      <trkpt lat="44.76215" lon="4.52487">
        <ele>798</ele>
        <time>2013-11-01T12:41:54Z</time>
      </trkpt>
      <trkpt lat="44.76231" lon="4.52497">
        <ele>800</ele>
        <time>2013-11-01T12:44:05Z</time>
      </trkpt>
      <trkpt lat="44.76214" lon="4.52486">
        <ele>798</ele>
        <time>2013-11-01T13:31:25Z</time>
      </trkpt>
      <trkpt lat="44.76214" lon="4.52511">
        <ele>791</ele>
        <time>2013-11-01T13:33:10Z</time>
      </trkpt>
      <trkpt lat="44.76219" lon="4.52536">
        <ele>791</ele>
        <time>2013-11-01T13:33:26Z</time>
      </trkpt>
      <trkpt lat="44.76224" lon="4.52561">
        <ele>790</ele>
        <time>2013-11-01T13:33:42Z</time>
      </trkpt>
      <trkpt lat="44.76228" lon="4.52586">
        <ele>786</ele>
        <time>2013-11-01T13:33:58Z</time>
      </trkpt>
      <trkpt lat="44.76231" lon="4.52612">
        <ele>784</ele>
        <time>2013-11-01T13:34:13Z</time>
      </trkpt>
      <trkpt lat="44.76238" lon="4.52637">
        <ele>784</ele>
        <time>2013-11-01T13:34:30Z</time>
      </trkpt>
      <trkpt lat="44.76241" lon="4.52663">
        <ele>786</ele>
        <time>2013-11-01T13:34:47Z</time>
      </trkpt>
      <trkpt lat="44.76246" lon="4.52688">
        <ele>781</ele>
        <time>2013-11-01T13:35:02Z</time>
      </trkpt>
      <trkpt lat="44.76251" lon="4.52713">
        <ele>786</ele>
        <time>2013-11-01T13:35:18Z</time>
      </trkpt>
      <trkpt lat="44.76252" lon="4.5274">
        <ele>783</ele>
        <time>2013-11-01T13:35:46Z</time>
      </trkpt>
      <trkpt lat="44.76253" lon="4.52768">
        <ele>778</ele>
        <time>2013-11-01T13:36:00Z</time>
      </trkpt>
      <trkpt lat="44.76262" lon="4.5279">
        <ele>776</ele>
        <time>2013-11-01T13:36:25Z</time>
      </trkpt>
      <trkpt lat="44.76269" lon="4.52813">
        <ele>774</ele>
        <time>2013-11-01T13:37:13Z</time>
      </trkpt>
      <trkpt lat="44.76281" lon="4.52835">
        <ele>766</ele>
        <time>2013-11-01T13:37:31Z</time>
      </trkpt>
      <trkpt lat="44.76296" lon="4.52849">
        <ele>766</ele>
        <time>2013-11-01T13:37:48Z</time>
      </trkpt>
      <trkpt lat="44.76278" lon="4.52858">
        <ele>765</ele>
        <time>2013-11-01T13:38:12Z</time>
      </trkpt>
      <trkpt lat="44.7627" lon="4.52881">
        <ele>763</ele>
        <time>2013-11-01T13:38:28Z</time>
      </trkpt>
      <trkpt lat="44.76287" lon="4.52893">
        <ele>763</ele>
        <time>2013-11-01T13:38:41Z</time>
      </trkpt>
      <trkpt lat="44.76304" lon="4.52901">
        <ele>763</ele>
        <time>2013-11-01T13:38:56Z</time>
      </trkpt>
      <trkpt lat="44.76322" lon="4.52909">
        <ele>763</ele>
        <time>2013-11-01T13:39:12Z</time>
      </trkpt>
      <trkpt lat="44.7634" lon="4.52917">
        <ele>761</ele>
        <time>2013-11-01T13:39:30Z</time>
      </trkpt>
      <trkpt lat="44.76353" lon="4.52935">
        <ele>759</ele>
        <time>2013-11-01T13:39:46Z</time>
      </trkpt>
      <trkpt lat="44.76367" lon="4.52953">
        <ele>759</ele>
        <time>2013-11-01T13:40:02Z</time>
      </trkpt>
      <trkpt lat="44.76384" lon="4.52965">
        <ele>759</ele>
        <time>2013-11-01T13:40:17Z</time>
      </trkpt>
      <trkpt lat="44.7639" lon="4.52989">
        <ele>759</ele>
        <time>2013-11-01T13:40:42Z</time>
      </trkpt>
      <trkpt lat="44.76381" lon="4.53012">
        <ele>757</ele>
        <time>2013-11-01T13:40:55Z</time>
      </trkpt>
      <trkpt lat="44.76363" lon="4.53017">
        <ele>756</ele>
        <time>2013-11-01T13:41:15Z</time>
      </trkpt>
      <trkpt lat="44.76344" lon="4.53009">
        <ele>755</ele>
        <time>2013-11-01T13:41:31Z</time>
      </trkpt>
      <trkpt lat="44.76326" lon="4.53005">
        <ele>752</ele>
        <time>2013-11-01T13:41:47Z</time>
      </trkpt>
      <trkpt lat="44.76306" lon="4.53003">
        <ele>749</ele>
        <time>2013-11-01T13:42:03Z</time>
      </trkpt>
      <trkpt lat="44.76288" lon="4.53003">
        <ele>747</ele>
        <time>2013-11-01T13:42:20Z</time>
      </trkpt>
      <trkpt lat="44.76269" lon="4.53001">
        <ele>746</ele>
        <time>2013-11-01T13:42:37Z</time>
      </trkpt>
      <trkpt lat="44.7625" lon="4.52995">
        <ele>748</ele>
        <time>2013-11-01T13:42:53Z</time>
      </trkpt>
      <trkpt lat="44.76233" lon="4.52986">
        <ele>744</ele>
        <time>2013-11-01T13:43:09Z</time>
      </trkpt>
      <trkpt lat="44.76215" lon="4.52984">
        <ele>742</ele>
        <time>2013-11-01T13:43:26Z</time>
      </trkpt>
      <trkpt lat="44.76214" lon="4.5301">
        <ele>735</ele>
        <time>2013-11-01T13:43:42Z</time>
      </trkpt>
      <trkpt lat="44.76227" lon="4.53029">
        <ele>735</ele>
        <time>2013-11-01T13:43:57Z</time>
      </trkpt>
      <trkpt lat="44.76238" lon="4.53049">
        <ele>734</ele>
        <time>2013-11-01T13:44:13Z</time>
      </trkpt>
      <trkpt lat="44.76249" lon="4.5307">
        <ele>734</ele>
        <time>2013-11-01T13:44:27Z</time>
      </trkpt>
      <trkpt lat="44.7626" lon="4.53091">
        <ele>735</ele>
        <time>2013-11-01T13:44:42Z</time>
      </trkpt>
      <trkpt lat="44.76264" lon="4.53115">
        <ele>736</ele>
        <time>2013-11-01T13:44:56Z</time>
      </trkpt>
      <trkpt lat="44.76264" lon="4.53142">
        <ele>734</ele>
        <time>2013-11-01T13:45:14Z</time>
      </trkpt>
      <trkpt lat="44.76265" lon="4.53169">
        <ele>732</ele>
        <time>2013-11-01T13:45:27Z</time>
      </trkpt>
      <trkpt lat="44.76259" lon="4.53194">
        <ele>735</ele>
        <time>2013-11-01T13:45:43Z</time>
      </trkpt>
      <trkpt lat="44.76247" lon="4.53215">
        <ele>726</ele>
        <time>2013-11-01T13:46:05Z</time>
      </trkpt>
      <trkpt lat="44.76236" lon="4.53234">
        <ele>727</ele>
        <time>2013-11-01T13:46:20Z</time>
      </trkpt>
      <trkpt lat="44.76217" lon="4.53236">
        <ele>724</ele>
        <time>2013-11-01T13:46:37Z</time>
      </trkpt>
      <trkpt lat="44.76205" lon="4.53258">
        <ele>725</ele>
        <time>2013-11-01T13:47:05Z</time>
      </trkpt>
      <trkpt lat="44.76196" lon="4.53279">
        <ele>724</ele>
        <time>2013-11-01T13:47:19Z</time>
      </trkpt>
      <trkpt lat="44.76192" lon="4.53306">
        <ele>724</ele>
        <time>2013-11-01T13:47:35Z</time>
      </trkpt>
      <trkpt lat="44.76189" lon="4.53333">
        <ele>723</ele>
        <time>2013-11-01T13:47:51Z</time>
      </trkpt>
      <trkpt lat="44.76183" lon="4.53357">
        <ele>725</ele>
        <time>2013-11-01T13:48:08Z</time>
      </trkpt>
      <trkpt lat="44.76165" lon="4.5336">
        <ele>711</ele>
        <time>2013-11-01T13:48:29Z</time>
      </trkpt>
      <trkpt lat="44.76147" lon="4.53366">
        <ele>710</ele>
        <time>2013-11-01T13:49:08Z</time>
      </trkpt>
      <trkpt lat="44.76134" lon="4.53385">
        <ele>709</ele>
        <time>2013-11-01T13:49:28Z</time>
      </trkpt>
      <trkpt lat="44.76143" lon="4.53408">
        <ele>711</ele>
        <time>2013-11-01T13:49:44Z</time>
      </trkpt>
      <trkpt lat="44.76159" lon="4.53394">
        <ele>712</ele>
        <time>2013-11-01T13:50:22Z</time>
      </trkpt>
      <trkpt lat="44.76168" lon="4.53372">
        <ele>725</ele>
        <time>2013-11-01T13:50:46Z</time>
      </trkpt>
      <trkpt lat="44.76158" lon="4.53393">
        <ele>712</ele>
        <time>2013-11-01T13:51:32Z</time>
      </trkpt>
      <trkpt lat="44.76152" lon="4.53418">
        <ele>713</ele>
        <time>2013-11-01T13:51:53Z</time>
      </trkpt>
      <trkpt lat="44.76153" lon="4.53444">
        <ele>710</ele>
        <time>2013-11-01T13:56:38Z</time>
      </trkpt>
      <trkpt lat="44.76153" lon="4.5347">
        <ele>710</ele>
        <time>2013-11-01T13:56:57Z</time>
      </trkpt>
      <trkpt lat="44.76152" lon="4.53495">
        <ele>711</ele>
        <time>2013-11-01T13:57:13Z</time>
      </trkpt>
      <trkpt lat="44.76156" lon="4.53521">
        <ele>710</ele>
        <time>2013-11-01T13:57:28Z</time>
      </trkpt>
      <trkpt lat="44.76164" lon="4.53545">
        <ele>709</ele>
        <time>2013-11-01T13:57:44Z</time>
      </trkpt>
      <trkpt lat="44.76168" lon="4.5357">
        <ele>719</ele>
        <time>2013-11-01T13:58:02Z</time>
      </trkpt>
      <trkpt lat="44.76156" lon="4.53589">
        <ele>713</ele>
        <time>2013-11-01T13:58:24Z</time>
      </trkpt>
      <trkpt lat="44.76139" lon="4.53581">
        <ele>708</ele>
        <time>2013-11-01T13:58:38Z</time>
      </trkpt>
      <trkpt lat="44.7612" lon="4.53584">
        <ele>709</ele>
        <time>2013-11-01T13:58:55Z</time>
      </trkpt>
      <trkpt lat="44.76103" lon="4.53596">
        <ele>707</ele>
        <time>2013-11-01T13:59:10Z</time>
      </trkpt>
      <trkpt lat="44.7609" lon="4.53615">
        <ele>708</ele>
        <time>2013-11-01T13:59:24Z</time>
      </trkpt>
      <trkpt lat="44.76077" lon="4.53635">
        <ele>700</ele>
        <time>2013-11-01T13:59:42Z</time>
      </trkpt>
      <trkpt lat="44.76065" lon="4.53653">
        <ele>700</ele>
        <time>2013-11-01T13:59:58Z</time>
      </trkpt>
      <trkpt lat="44.7605" lon="4.53669">
        <ele>700</ele>
        <time>2013-11-01T14:00:27Z</time>
      </trkpt>
      <trkpt lat="44.76037" lon="4.53687">
        <ele>699</ele>
        <time>2013-11-01T14:00:45Z</time>
      </trkpt>
      <trkpt lat="44.76021" lon="4.537">
        <ele>697</ele>
        <time>2013-11-01T14:01:05Z</time>
      </trkpt>
      <trkpt lat="44.76003" lon="4.53702">
        <ele>696</ele>
        <time>2013-11-01T14:01:19Z</time>
      </trkpt>
      <trkpt lat="44.75984" lon="4.53702">
        <ele>690</ele>
        <time>2013-11-01T14:01:37Z</time>
      </trkpt>
      <trkpt lat="44.75966" lon="4.53704">
        <ele>690</ele>
        <time>2013-11-01T14:01:57Z</time>
      </trkpt>
      <trkpt lat="44.75947" lon="4.53705">
        <ele>690</ele>
        <time>2013-11-01T14:02:16Z</time>
      </trkpt>
      <trkpt lat="44.75928" lon="4.53704">
        <ele>690</ele>
        <time>2013-11-01T14:02:36Z</time>
      </trkpt>
      <trkpt lat="44.7591" lon="4.53705">
        <ele>685</ele>
        <time>2013-11-01T14:02:55Z</time>
      </trkpt>
      <trkpt lat="44.75893" lon="4.53717">
        <ele>684</ele>
        <time>2013-11-01T14:03:19Z</time>
      </trkpt>
      <trkpt lat="44.75886" lon="4.53742">
        <ele>684</ele>
        <time>2013-11-01T14:03:36Z</time>
      </trkpt>
      <trkpt lat="44.75883" lon="4.53767">
        <ele>679</ele>
        <time>2013-11-01T14:03:58Z</time>
      </trkpt>
      <trkpt lat="44.75891" lon="4.53791">
        <ele>678</ele>
        <time>2013-11-01T14:04:55Z</time>
      </trkpt>
      <trkpt lat="44.75895" lon="4.53816">
        <ele>678</ele>
        <time>2013-11-01T14:05:10Z</time>
      </trkpt>
      <trkpt lat="44.75902" lon="4.53841">
        <ele>674</ele>
        <time>2013-11-01T14:05:24Z</time>
      </trkpt>
      <trkpt lat="44.75911" lon="4.53863">
        <ele>671</ele>
        <time>2013-11-01T14:05:39Z</time>
      </trkpt>
      <trkpt lat="44.75917" lon="4.53889">
        <ele>669</ele>
        <time>2013-11-01T14:05:58Z</time>
      </trkpt>
      <trkpt lat="44.75922" lon="4.53913">
        <ele>675</ele>
        <time>2013-11-01T14:06:12Z</time>
      </trkpt>
      <trkpt lat="44.75929" lon="4.53938">
        <ele>676</ele>
        <time>2013-11-01T14:06:27Z</time>
      </trkpt>
      <trkpt lat="44.7593" lon="4.53965">
        <ele>676</ele>
        <time>2013-11-01T14:06:42Z</time>
      </trkpt>
      <trkpt lat="44.7593" lon="4.53991">
        <ele>672</ele>
        <time>2013-11-01T14:07:00Z</time>
      </trkpt>
      <trkpt lat="44.75928" lon="4.54018">
        <ele>672</ele>
        <time>2013-11-01T14:07:15Z</time>
      </trkpt>
      <trkpt lat="44.75916" lon="4.54037">
        <ele>661</ele>
        <time>2013-11-01T14:07:34Z</time>
      </trkpt>
      <trkpt lat="44.75902" lon="4.54054">
        <ele>661</ele>
        <time>2013-11-01T14:07:54Z</time>
      </trkpt>
      <trkpt lat="44.75884" lon="4.54057">
        <ele>659</ele>
        <time>2013-11-01T14:08:10Z</time>
      </trkpt>
      <trkpt lat="44.75867" lon="4.54066">
        <ele>657</ele>
        <time>2013-11-01T14:08:26Z</time>
      </trkpt>
      <trkpt lat="44.75852" lon="4.54083">
        <ele>655</ele>
        <time>2013-11-01T14:08:45Z</time>
      </trkpt>
      <trkpt lat="44.75839" lon="4.541">
        <ele>661</ele>
        <time>2013-11-01T14:09:06Z</time>
      </trkpt>
      <trkpt lat="44.75823" lon="4.54113">
        <ele>650</ele>
        <time>2013-11-01T14:09:24Z</time>
      </trkpt>
      <trkpt lat="44.75807" lon="4.54127">
        <ele>650</ele>
        <time>2013-11-01T14:09:44Z</time>
      </trkpt>
      <trkpt lat="44.75793" lon="4.54143">
        <ele>649</ele>
        <time>2013-11-01T14:10:04Z</time>
      </trkpt>
      <trkpt lat="44.75779" lon="4.54161">
        <ele>647</ele>
        <time>2013-11-01T14:10:24Z</time>
      </trkpt>
      <trkpt lat="44.75767" lon="4.54181">
        <ele>653</ele>
        <time>2013-11-01T14:10:42Z</time>
      </trkpt>
      <trkpt lat="44.75782" lon="4.54167">
        <ele>657</ele>
        <time>2013-11-01T14:12:12Z</time>
      </trkpt>
      <trkpt lat="44.75793" lon="4.54147">
        <ele>650</ele>
        <time>2013-11-01T14:12:29Z</time>
      </trkpt>
      <trkpt lat="44.75802" lon="4.54123">
        <ele>648</ele>
        <time>2013-11-01T14:12:47Z</time>
      </trkpt>
      <trkpt lat="44.75812" lon="4.54101">
        <ele>648</ele>
        <time>2013-11-01T14:13:01Z</time>
      </trkpt>
      <trkpt lat="44.75824" lon="4.54082">
        <ele>645</ele>
        <time>2013-11-01T14:13:18Z</time>
      </trkpt>
      <trkpt lat="44.75833" lon="4.5406">
        <ele>639</ele>
        <time>2013-11-01T14:13:29Z</time>
      </trkpt>
      <trkpt lat="44.75834" lon="4.54034">
        <ele>651</ele>
        <time>2013-11-01T14:13:40Z</time>
      </trkpt>
      <trkpt lat="44.75844" lon="4.54012">
        <ele>647</ele>
        <time>2013-11-01T14:14:00Z</time>
      </trkpt>
      <trkpt lat="44.75847" lon="4.53987">
        <ele>647</ele>
        <time>2013-11-01T14:14:34Z</time>
      </trkpt>
      <trkpt lat="44.75839" lon="4.53963">
        <ele>650</ele>
        <time>2013-11-01T14:14:50Z</time>
      </trkpt>
      <trkpt lat="44.75827" lon="4.53943">
        <ele>636</ele>
        <time>2013-11-01T14:15:06Z</time>
      </trkpt>
      <trkpt lat="44.75816" lon="4.53923">
        <ele>638</ele>
        <time>2013-11-01T14:15:22Z</time>
      </trkpt>
      <trkpt lat="44.75803" lon="4.53903">
        <ele>644</ele>
        <time>2013-11-01T14:15:40Z</time>
      </trkpt>
      <trkpt lat="44.75785" lon="4.53895">
        <ele>641</ele>
        <time>2013-11-01T14:16:02Z</time>
      </trkpt>
      <trkpt lat="44.75767" lon="4.53887">
        <ele>640</ele>
        <time>2013-11-01T14:16:14Z</time>
      </trkpt>
      <trkpt lat="44.75749" lon="4.53882">
        <ele>629</ele>
        <time>2013-11-01T14:16:31Z</time>
      </trkpt>
      <trkpt lat="44.7573" lon="4.53883">
        <ele>628</ele>
        <time>2013-11-01T14:16:46Z</time>
      </trkpt>
      <trkpt lat="44.75712" lon="4.53881">
        <ele>626</ele>
        <time>2013-11-01T14:17:02Z</time>
      </trkpt>
      <trkpt lat="44.75693" lon="4.53877">
        <ele>625</ele>
        <time>2013-11-01T14:17:20Z</time>
      </trkpt>
      <trkpt lat="44.75676" lon="4.53872">
        <ele>625</ele>
        <time>2013-11-01T14:17:36Z</time>
      </trkpt>
      <trkpt lat="44.75657" lon="4.53872">
        <ele>615</ele>
        <time>2013-11-01T14:17:52Z</time>
      </trkpt>
      <trkpt lat="44.75645" lon="4.53851">
        <ele>617</ele>
        <time>2013-11-01T14:18:06Z</time>
      </trkpt>
      <trkpt lat="44.75627" lon="4.53843">
        <ele>615</ele>
        <time>2013-11-01T14:18:24Z</time>
      </trkpt>
      <trkpt lat="44.7561" lon="4.53835">
        <ele>612</ele>
        <time>2013-11-01T14:18:41Z</time>
      </trkpt>
      <trkpt lat="44.75598" lon="4.53815">
        <ele>620</ele>
        <time>2013-11-01T14:18:55Z</time>
      </trkpt>
      <trkpt lat="44.75587" lon="4.53794">
        <ele>623</ele>
        <time>2013-11-01T14:19:12Z</time>
      </trkpt>
      <trkpt lat="44.75573" lon="4.53778">
        <ele>610</ele>
        <time>2013-11-01T14:19:29Z</time>
      </trkpt>
      <trkpt lat="44.75559" lon="4.53761">
        <ele>610</ele>
        <time>2013-11-01T14:20:18Z</time>
      </trkpt>
      <trkpt lat="44.75543" lon="4.53749">
        <ele>608</ele>
        <time>2013-11-01T14:21:17Z</time>
      </trkpt>
      <trkpt lat="44.75553" lon="4.53771">
        <ele>608</ele>
        <time>2013-11-01T14:23:50Z</time>
      </trkpt>
      <trkpt lat="44.75562" lon="4.53794">
        <ele>608</ele>
        <time>2013-11-01T14:24:07Z</time>
      </trkpt>
      <trkpt lat="44.75569" lon="4.53818">
        <ele>608</ele>
        <time>2013-11-01T14:24:26Z</time>
      </trkpt>
      <trkpt lat="44.75575" lon="4.53842">
        <ele>605</ele>
        <time>2013-11-01T14:24:41Z</time>
      </trkpt>
      <trkpt lat="44.75585" lon="4.53864">
        <ele>609</ele>
        <time>2013-11-01T14:24:57Z</time>
      </trkpt>
      <trkpt lat="44.75596" lon="4.53884">
        <ele>608</ele>
        <time>2013-11-01T14:25:15Z</time>
      </trkpt>
      <trkpt lat="44.75611" lon="4.53899">
        <ele>607</ele>
        <time>2013-11-01T14:25:31Z</time>
      </trkpt>
      <trkpt lat="44.75621" lon="4.53922">
        <ele>596</ele>
        <time>2013-11-01T14:25:47Z</time>
      </trkpt>
      <trkpt lat="44.75634" lon="4.5394">
        <ele>596</ele>
        <time>2013-11-01T14:26:03Z</time>
      </trkpt>
      <trkpt lat="44.75651" lon="4.53952">
        <ele>596</ele>
        <time>2013-11-01T14:26:20Z</time>
      </trkpt>
      <trkpt lat="44.75668" lon="4.53961">
        <ele>604</ele>
        <time>2013-11-01T14:26:34Z</time>
      </trkpt>
      <trkpt lat="44.75685" lon="4.53971">
        <ele>603</ele>
        <time>2013-11-01T14:26:51Z</time>
      </trkpt>
      <trkpt lat="44.75703" lon="4.53978">
        <ele>605</ele>
        <time>2013-11-01T14:27:05Z</time>
      </trkpt>
      <trkpt lat="44.7572" lon="4.5399">
        <ele>607</ele>
        <time>2013-11-01T14:27:27Z</time>
      </trkpt>
      <trkpt lat="44.75711" lon="4.54011">
        <ele>602</ele>
        <time>2013-11-01T14:27:53Z</time>
      </trkpt>
      <trkpt lat="44.75696" lon="4.54025">
        <ele>600</ele>
        <time>2013-11-01T14:28:09Z</time>
      </trkpt>
      <trkpt lat="44.75683" lon="4.54045">
        <ele>599</ele>
        <time>2013-11-01T14:28:27Z</time>
      </trkpt>
      <trkpt lat="44.75671" lon="4.54064">
        <ele>597</ele>
        <time>2013-11-01T14:28:43Z</time>
      </trkpt>
      <trkpt lat="44.75658" lon="4.54083">
        <ele>591</ele>
        <time>2013-11-01T14:28:59Z</time>
      </trkpt>
      <trkpt lat="44.75641" lon="4.54095">
        <ele>590</ele>
        <time>2013-11-01T14:29:18Z</time>
      </trkpt>
      <trkpt lat="44.75625" lon="4.54081">
        <ele>584</ele>
        <time>2013-11-01T14:29:36Z</time>
      </trkpt>
      <trkpt lat="44.75607" lon="4.54081">
        <ele>581</ele>
        <time>2013-11-01T14:29:49Z</time>
      </trkpt>
      <trkpt lat="44.75589" lon="4.54089">
        <ele>580</ele>
        <time>2013-11-01T14:30:05Z</time>
      </trkpt>
      <trkpt lat="44.75573" lon="4.54104">
        <ele>572</ele>
        <time>2013-11-01T14:30:19Z</time>
      </trkpt>
      <trkpt lat="44.75559" lon="4.54122">
        <ele>571</ele>
        <time>2013-11-01T14:30:36Z</time>
      </trkpt>
      <trkpt lat="44.75546" lon="4.54141">
        <ele>570</ele>
        <time>2013-11-01T14:30:53Z</time>
      </trkpt>
      <trkpt lat="44.75539" lon="4.54165">
        <ele>568</ele>
        <time>2013-11-01T14:31:11Z</time>
      </trkpt>
      <trkpt lat="44.75541" lon="4.5419">
        <ele>568</ele>
        <time>2013-11-01T14:31:25Z</time>
      </trkpt>
      <trkpt lat="44.75547" lon="4.54215">
        <ele>569</ele>
        <time>2013-11-01T14:31:40Z</time>
      </trkpt>
      <trkpt lat="44.75549" lon="4.54241">
        <ele>569</ele>
        <time>2013-11-01T14:31:56Z</time>
      </trkpt>
      <trkpt lat="44.75554" lon="4.54266">
        <ele>568</ele>
        <time>2013-11-01T14:32:16Z</time>
      </trkpt>
      <trkpt lat="44.75555" lon="4.54292">
        <ele>568</ele>
        <time>2013-11-01T14:32:34Z</time>
      </trkpt>
      <trkpt lat="44.75551" lon="4.54316">
        <ele>567</ele>
        <time>2013-11-01T14:33:43Z</time>
      </trkpt>
      <trkpt lat="44.75543" lon="4.54293">
        <ele>566</ele>
        <time>2013-11-01T14:39:05Z</time>
      </trkpt>
      <trkpt lat="44.75536" lon="4.54269">
        <ele>565</ele>
        <time>2013-11-01T14:39:22Z</time>
      </trkpt>
      <trkpt lat="44.75528" lon="4.54246">
        <ele>564</ele>
        <time>2013-11-01T14:39:39Z</time>
      </trkpt>
      <trkpt lat="44.75519" lon="4.54224">
        <ele>564</ele>
        <time>2013-11-01T14:39:57Z</time>
      </trkpt>
      <trkpt lat="44.75509" lon="4.54202">
        <ele>563</ele>
        <time>2013-11-01T14:40:14Z</time>
      </trkpt>
      <trkpt lat="44.75501" lon="4.54179">
        <ele>560</ele>
        <time>2013-11-01T14:40:30Z</time>
      </trkpt>
      <trkpt lat="44.75502" lon="4.54153">
        <ele>561</ele>
        <time>2013-11-01T14:40:45Z</time>
      </trkpt>
      <trkpt lat="44.7551" lon="4.54129">
        <ele>565</ele>
        <time>2013-11-01T14:41:05Z</time>
      </trkpt>
      <trkpt lat="44.75519" lon="4.54107">
        <ele>566</ele>
        <time>2013-11-01T14:41:25Z</time>
      </trkpt>
      <trkpt lat="44.7553" lon="4.54086">
        <ele>567</ele>
        <time>2013-11-01T14:41:43Z</time>
      </trkpt>
      <trkpt lat="44.75513" lon="4.54077">
        <ele>565</ele>
        <time>2013-11-01T14:42:22Z</time>
      </trkpt>
      <trkpt lat="44.75497" lon="4.54088">
        <ele>559</ele>
        <time>2013-11-01T14:42:37Z</time>
      </trkpt>
      <trkpt lat="44.75478" lon="4.5409">
        <ele>556</ele>
        <time>2013-11-01T14:42:48Z</time>
      </trkpt>
      <trkpt lat="44.75459" lon="4.54095">
        <ele>555</ele>
        <time>2013-11-01T14:43:06Z</time>
      </trkpt>
      <trkpt lat="44.75441" lon="4.54104">
        <ele>554</ele>
        <time>2013-11-01T14:43:22Z</time>
      </trkpt>
      <trkpt lat="44.75423" lon="4.5411">
        <ele>553</ele>
        <time>2013-11-01T14:43:38Z</time>
      </trkpt>
      <trkpt lat="44.75408" lon="4.54125">
        <ele>544</ele>
        <time>2013-11-01T14:43:53Z</time>
      </trkpt>
      <trkpt lat="44.75391" lon="4.54133">
        <ele>542</ele>
        <time>2013-11-01T14:44:09Z</time>
      </trkpt>
      <trkpt lat="44.75374" lon="4.54124">
        <ele>542</ele>
        <time>2013-11-01T14:44:28Z</time>
      </trkpt>
      <trkpt lat="44.75356" lon="4.54117">
        <ele>542</ele>
        <time>2013-11-01T14:44:44Z</time>
      </trkpt>
      <trkpt lat="44.75341" lon="4.54103">
        <ele>543</ele>
        <time>2013-11-01T14:45:14Z</time>
      </trkpt>
      <trkpt lat="44.75325" lon="4.54089">
        <ele>541</ele>
        <time>2013-11-01T14:45:29Z</time>
      </trkpt>
      <trkpt lat="44.7531" lon="4.54076">
        <ele>542</ele>
        <time>2013-11-01T14:45:43Z</time>
      </trkpt>
      <trkpt lat="44.75292" lon="4.54069">
        <ele>541</ele>
        <time>2013-11-01T14:46:01Z</time>
      </trkpt>
      <trkpt lat="44.75274" lon="4.54076">
        <ele>538</ele>
        <time>2013-11-01T14:46:18Z</time>
      </trkpt>
      <trkpt lat="44.75256" lon="4.54083">
        <ele>535</ele>
        <time>2013-11-01T14:46:34Z</time>
      </trkpt>
      <trkpt lat="44.75237" lon="4.54089">
        <ele>532</ele>
        <time>2013-11-01T14:46:50Z</time>
      </trkpt>
      <trkpt lat="44.7522" lon="4.54097">
        <ele>532</ele>
        <time>2013-11-01T14:47:07Z</time>
      </trkpt>
      <trkpt lat="44.75204" lon="4.54112">
        <ele>532</ele>
        <time>2013-11-01T14:47:23Z</time>
      </trkpt>
      <trkpt lat="44.75192" lon="4.54131">
        <ele>531</ele>
        <time>2013-11-01T14:47:41Z</time>
      </trkpt>
    </trkseg>
  </trk>
</gpx>